createdAt,value
2018-03-01T10:46:47.520Z,22.80
2018-03-01T10:49:15.027Z,23.10
2018-03-01T10:51:42.630Z,22.60
2018-03-01T10:54:10.911Z,22.70
2018-03-01T10:56:39.190Z,22.80
2018-03-01T10:59:07.467Z,23.10
2018-03-01T11:01:35.743Z,22.80
2018-03-01T11:04:04.026Z,22.90
2018-03-01T11:06:32.316Z,23.00
2018-03-01T11:09:00.611Z,22.90
2018-03-01T11:11:28.126Z,22.90
2018-03-01T11:13:55.657Z,23.40
2018-03-01T11:16:23.172Z,23.00
2018-03-01T11:18:51.449Z,23.50
2018-03-01T11:21:18.973Z,23.10
2018-03-01T11:23:46.488Z,23.10
2018-03-01T11:26:14.770Z,23.20
2018-03-01T11:28:43.065Z,23.30
2018-03-01T11:31:10.578Z,23.30
2018-03-01T11:33:38.113Z,23.20
2018-03-01T11:36:05.621Z,23.30
2018-03-01T11:38:33.226Z,23.10
2018-03-01T11:41:00.756Z,23.20
2018-03-01T11:43:28.270Z,23.30
2018-03-01T11:45:55.788Z,23.20
2018-03-01T11:48:24.082Z,23.20
2018-03-01T11:50:52.369Z,23.30
2018-03-01T11:53:19.882Z,23.30
2018-03-01T11:55:47.402Z,23.10
2018-03-01T11:58:14.922Z,23.30
2018-03-01T12:00:42.440Z,23.30
2018-03-01T12:03:09.964Z,23.40
2018-03-01T12:05:38.241Z,23.30
2018-03-01T12:08:06.520Z,23.30
2018-03-01T12:10:34.083Z,23.30
2018-03-01T12:13:01.943Z,23.30
2018-03-01T12:15:29.724Z,23.20
2018-03-01T12:17:58.010Z,23.50
2018-03-01T12:20:26.290Z,23.30
2018-03-01T12:22:54.568Z,23.40
2018-03-01T12:25:22.090Z,23.40
2018-03-01T12:27:49.605Z,23.10
2018-03-01T12:30:17.908Z,23.40
2018-03-01T12:32:45.416Z,23.40
2018-03-01T12:35:12.934Z,23.40
2018-03-01T12:37:40.445Z,23.40
2018-03-01T12:40:07.966Z,23.30
2018-03-01T12:42:35.489Z,23.40
2018-03-01T12:45:03.012Z,23.40
2018-03-01T12:47:30.542Z,23.50
2018-03-01T12:49:58.432Z,23.40
2018-03-01T12:52:25.957Z,23.50
2018-03-01T12:54:54.242Z,23.60
2018-03-01T12:57:22.534Z,23.60
2018-03-01T12:59:50.065Z,23.60
2018-03-01T13:02:17.592Z,23.60
2018-03-01T13:04:45.890Z,23.90
2018-03-01T13:07:13.471Z,23.60
2018-03-01T13:09:40.998Z,23.40
2018-03-01T13:12:08.519Z,23.30
2018-03-01T13:14:36.807Z,23.20
2018-03-01T13:17:05.085Z,23.50
2018-03-01T13:19:33.369Z,23.40
2018-03-01T13:22:01.656Z,23.40
2018-03-01T13:24:29.166Z,23.30
2018-03-01T13:26:56.692Z,23.20
2018-03-01T13:29:24.218Z,23.20
2018-03-01T13:31:57.368Z,23.10
2018-03-01T13:34:25.834Z,23.10
2018-03-01T13:36:53.345Z,23.10
2018-03-01T13:39:20.856Z,23.10
2018-03-01T13:41:49.001Z,23.10
2018-03-01T13:44:16.520Z,23.00
2018-03-01T13:46:45.659Z,23.10
2018-03-01T13:49:13.174Z,23.10
2018-03-01T13:51:40.708Z,23.10
2018-03-01T13:54:09.253Z,23.10
2018-03-01T13:56:36.777Z,23.10
2018-03-01T13:59:04.296Z,23.40
2018-03-01T14:01:32.576Z,23.70
2018-03-01T14:04:00.095Z,23.70
2018-03-01T14:06:44.464Z,23.70
2018-03-01T14:09:11.969Z,23.70
2018-03-01T14:11:40.240Z,23.60
2018-03-01T14:14:23.548Z,23.50
2018-03-01T14:16:51.693Z,23.50
2018-03-01T14:19:22.705Z,23.40
2018-03-01T14:21:56.779Z,23.50
2018-03-01T14:24:25.910Z,23.50
2018-03-01T14:26:54.804Z,24.50
2018-03-01T14:29:38.863Z,24.00
2018-03-01T14:32:06.376Z,24.00
2018-03-01T14:34:33.901Z,23.90
2018-03-01T14:37:02.023Z,24.10
2018-03-01T14:39:29.573Z,23.80
2018-03-01T14:41:57.103Z,23.60
2018-03-01T14:44:24.617Z,23.60
2018-03-01T14:46:52.144Z,23.60
2018-03-01T14:49:19.657Z,23.90
2018-03-01T14:51:47.973Z,23.50
2018-03-01T14:54:15.489Z,23.40
2018-03-01T14:56:49.307Z,23.40
2018-03-01T14:59:16.985Z,23.30
2018-03-01T15:01:45.268Z,23.20
2018-03-01T15:04:12.839Z,23.20
2018-03-01T15:06:40.331Z,23.20
2018-03-01T15:09:07.846Z,23.20
2018-03-01T15:11:36.124Z,23.10
2018-03-01T15:14:04.420Z,23.20
2018-03-01T15:16:31.983Z,23.00
2018-03-01T15:19:00.306Z,23.00
2018-03-01T15:21:27.821Z,23.00
2018-03-01T15:23:56.104Z,23.00
2018-03-01T15:26:24.489Z,23.00
2018-03-01T15:28:52.786Z,23.20
2018-03-01T15:31:21.747Z,23.20
2018-03-01T15:33:50.054Z,22.90
2018-03-01T15:36:17.568Z,22.90
2018-03-01T15:38:45.086Z,22.70
2018-03-01T15:41:12.596Z,22.70
2018-03-01T15:43:40.111Z,22.70
2018-03-01T15:46:07.630Z,22.70
2018-03-01T15:48:35.233Z,23.10
2018-03-01T15:51:03.621Z,22.80
2018-03-01T15:53:31.175Z,22.70
2018-03-01T15:55:59.451Z,22.80
2018-03-01T15:58:28.721Z,22.90
2018-03-01T16:00:56.346Z,22.90
2018-03-01T16:03:24.618Z,22.80
2018-03-01T16:05:52.142Z,22.80
2018-03-01T16:08:19.741Z,22.80
2018-03-01T16:10:48.030Z,23.40
2018-03-01T16:13:15.590Z,23.00
2018-03-01T16:15:43.098Z,23.00
2018-03-01T16:18:10.621Z,23.10
2018-03-01T16:20:38.179Z,23.10
2018-03-01T16:23:05.693Z,23.10
2018-03-01T16:25:33.313Z,23.30
2018-03-01T16:28:01.133Z,23.30
2018-03-01T16:30:28.650Z,23.30
2018-03-01T16:32:56.165Z,23.20
2018-03-01T16:35:23.673Z,23.20
2018-03-01T16:37:51.191Z,23.20
2018-03-01T16:40:18.709Z,23.30
2018-03-01T16:42:46.219Z,23.30
2018-03-01T16:45:14.580Z,23.40
2018-03-01T16:47:42.191Z,23.30
2018-03-01T16:50:10.468Z,23.30
2018-03-01T16:52:38.742Z,23.30
2018-03-01T16:55:08.757Z,23.90
2018-03-01T16:57:36.266Z,23.40
2018-03-01T17:00:03.786Z,23.80
2018-03-01T17:02:31.298Z,23.30
2018-03-01T17:04:58.812Z,23.40
2018-03-01T17:07:26.321Z,23.60
2018-03-01T17:09:53.840Z,23.50
2018-03-01T17:12:21.347Z,23.50
2018-03-01T17:14:48.980Z,23.50
2018-03-01T17:17:17.266Z,23.60
2018-03-01T17:19:45.553Z,23.60
2018-03-01T17:22:13.069Z,23.60
2018-03-01T17:24:40.673Z,23.60
2018-03-01T17:27:08.952Z,23.60
2018-03-01T17:29:37.261Z,23.40
2018-03-01T17:32:05.025Z,23.40
2018-03-01T17:34:32.532Z,23.50
2018-03-01T17:37:00.048Z,23.50
2018-03-01T17:39:27.572Z,23.60
2018-03-01T17:41:55.161Z,23.50
2018-03-01T17:44:23.434Z,23.60
2018-03-01T17:46:51.722Z,23.50
2018-03-01T17:49:20.020Z,23.50
2018-03-01T17:51:47.540Z,23.40
2018-03-01T17:54:15.071Z,23.60
2018-03-01T17:56:42.583Z,23.70
2018-03-01T17:59:10.871Z,24.20
2018-03-01T18:01:39.148Z,24.00
2018-03-01T18:04:07.431Z,23.90
2018-03-01T18:06:34.974Z,23.80
2018-03-01T18:09:02.499Z,23.70
2018-03-01T18:11:30.014Z,23.80
2018-03-01T18:13:58.320Z,23.70
2018-03-01T18:16:25.844Z,23.60
2018-03-01T18:18:53.379Z,23.80
2018-03-01T18:21:20.999Z,23.80
2018-03-01T18:23:48.521Z,23.80
2018-03-01T18:26:16.042Z,23.80
2018-03-01T18:28:43.558Z,23.80
2018-03-01T18:31:11.842Z,23.90
2018-03-01T18:33:39.365Z,23.80
2018-03-01T18:36:06.907Z,23.90
2018-03-01T18:38:34.425Z,23.90
2018-03-01T18:41:01.955Z,23.90
2018-03-01T18:43:29.465Z,23.90
2018-03-01T18:45:56.990Z,23.80
2018-03-01T18:48:24.506Z,23.90
2018-03-01T18:50:52.807Z,23.80
2018-03-01T18:53:20.323Z,23.80
2018-03-01T18:55:48.624Z,24.10
2018-03-01T18:58:16.906Z,23.70
2018-03-01T19:00:45.610Z,23.80
2018-03-01T19:03:13.176Z,23.70
2018-03-01T19:05:40.710Z,23.80
2018-03-01T19:08:08.679Z,23.70
2018-03-01T19:10:36.193Z,23.40
2018-03-01T19:13:03.708Z,23.90
2018-03-01T19:15:32.012Z,23.70
2018-03-01T19:18:00.293Z,23.70
2018-03-01T19:20:28.578Z,23.70
2018-03-01T19:22:56.958Z,23.70
2018-03-01T19:25:24.488Z,23.70
2018-03-01T19:27:52.014Z,23.80
2018-03-01T19:30:19.526Z,24.00
2018-03-01T19:32:47.127Z,24.00
2018-03-01T19:35:14.646Z,24.10
2018-03-01T19:37:44.699Z,23.90
2018-03-01T19:40:12.991Z,23.90
2018-03-01T19:42:40.555Z,23.90
2018-03-01T19:45:08.065Z,23.80
2018-03-01T19:47:35.632Z,23.80
2018-03-01T19:50:03.130Z,23.70
2018-03-01T19:52:31.768Z,23.80
2018-03-01T19:54:59.638Z,23.80
2018-03-01T19:57:27.169Z,23.80
2018-03-01T19:59:54.690Z,23.70
2018-03-01T20:02:22.332Z,23.80
2018-03-01T20:04:49.840Z,23.70
2018-03-01T20:07:18.130Z,24.00
2018-03-01T20:09:46.410Z,24.00
2018-03-01T20:12:13.951Z,24.00
2018-03-01T20:14:41.550Z,24.50
2018-03-01T20:17:09.077Z,24.00
2018-03-01T20:19:36.622Z,23.90
2018-03-01T20:22:04.175Z,23.90
2018-03-01T20:24:31.711Z,23.80
2018-03-01T20:26:59.221Z,23.80
2018-03-01T20:29:26.731Z,23.80
2018-03-01T20:31:54.244Z,23.70
2018-03-01T20:34:21.765Z,23.60
2018-03-01T20:36:49.338Z,23.70
2018-03-01T20:39:16.875Z,23.60
2018-03-01T20:41:44.452Z,23.70
2018-03-01T20:44:12.008Z,23.90
